sensor_id;sensor_type;location;lat;lon;timestamp;pressure;altitude;pressure_sealevel;temperature;humidity
31717;BME280;18301;51.076;17.046;2023-02-28T00:00:48;101589.13;;;2.45;62.13
31717;BME280;18301;51.076;17.046;2023-02-28T00:05:49;101588.25;;;2.46;61.96
31717;BME280;18301;51.076;17.046;2023-02-28T00:10:51;101586.53;;;2.42;62.26
31717;BME280;18301;51.076;17.046;2023-02-28T00:16:03;101586.47;;;2.45;62.26
31717;BME280;18301;51.076;17.046;2023-02-28T00:21:06;101581.06;;;2.48;62.25
31717;BME280;18301;51.076;17.046;2023-02-28T00:26:07;101580.94;;;2.54;61.93
31717;BME280;18301;51.076;17.046;2023-02-28T00:31:09;101570.34;;;2.51;61.87
31717;BME280;18301;51.076;17.046;2023-02-28T00:36:11;101577.47;;;2.52;61.70
31717;BME280;18301;51.076;17.046;2023-02-28T00:41:13;101572.13;;;2.52;60.00
31717;BME280;18301;51.076;17.046;2023-02-28T00:46:14;101581.22;;;2.42;59.82
31717;BME280;18301;51.076;17.046;2023-02-28T00:51:15;101572.31;;;2.43;60.74
31717;BME280;18301;51.076;17.046;2023-02-28T00:56:17;101575.06;;;2.39;60.89
31717;BME280;18301;51.076;17.046;2023-02-28T01:01:18;101579.34;;;2.47;60.98
31717;BME280;18301;51.076;17.046;2023-02-28T01:06:20;101573.09;;;2.48;61.18
31717;BME280;18301;51.076;17.046;2023-02-28T01:11:23;101573.19;;;2.44;60.78
31717;BME280;18301;51.076;17.046;2023-02-28T01:16:24;101564.34;;;2.43;61.14
31717;BME280;18301;51.076;17.046;2023-02-28T01:21:26;101571.69;;;2.30;61.51
31717;BME280;18301;51.076;17.046;2023-02-28T01:26:28;101564.47;;;2.36;61.91
31717;BME280;18301;51.076;17.046;2023-02-28T01:31:30;101561.81;;;2.37;61.64
31717;BME280;18301;51.076;17.046;2023-02-28T01:36:32;101570.63;;;2.39;61.60
31717;BME280;18301;51.076;17.046;2023-02-28T01:41:34;101568.09;;;2.33;61.91
31717;BME280;18301;51.076;17.046;2023-02-28T01:46:36;101565.34;;;2.36;62.73
31717;BME280;18301;51.076;17.046;2023-02-28T01:51:41;101563.69;;;2.32;62.62
31717;BME280;18301;51.076;17.046;2023-02-28T01:56:57;101552.41;;;2.18;63.12
31717;BME280;18301;51.076;17.046;2023-02-28T02:02:00;101564.00;;;2.17;63.11
31717;BME280;18301;51.076;17.046;2023-02-28T02:07:03;101569.25;;;2.20;62.68
31717;BME280;18301;51.076;17.046;2023-02-28T02:12:23;101568.94;;;2.34;62.39
31717;BME280;18301;51.076;17.046;2023-02-28T02:17:30;101561.06;;;2.29;62.96
31717;BME280;18301;51.076;17.046;2023-02-28T02:39:41;101557.53;;;2.28;63.62
31717;BME280;18301;51.076;17.046;2023-02-28T02:44:50;101540.75;;;2.25;64.07
31717;BME280;18301;51.076;17.046;2023-02-28T02:49:57;101542.63;;;2.20;63.85
31717;BME280;18301;51.076;17.046;2023-02-28T02:55:00;101549.69;;;2.21;64.10
31717;BME280;18301;51.076;17.046;2023-02-28T03:00:05;101545.34;;;2.17;64.05
31717;BME280;18301;51.076;17.046;2023-02-28T03:05:23;101545.44;;;2.12;64.10
31717;BME280;18301;51.076;17.046;2023-02-28T03:15:44;101552.41;;;2.18;63.42
31717;BME280;18301;51.076;17.046;2023-02-28T03:21:01;101549.94;;;2.08;63.82
31717;BME280;18301;51.076;17.046;2023-02-28T03:26:16;101552.91;;;1.95;64.57
31717;BME280;18301;51.076;17.046;2023-02-28T03:31:31;101558.28;;;1.92;64.59
31717;BME280;18301;51.076;17.046;2023-02-28T03:36:39;101566.03;;;2.02;64.05
31717;BME280;18301;51.076;17.046;2023-02-28T03:41:49;101564.28;;;2.01;64.07
31717;BME280;18301;51.076;17.046;2023-02-28T03:46:57;101571.25;;;2.08;63.67
31717;BME280;18301;51.076;17.046;2023-02-28T03:52:04;101571.31;;;2.05;63.40
31717;BME280;18301;51.076;17.046;2023-02-28T03:57:18;101580.16;;;2.07;63.84
31717;BME280;18301;51.076;17.046;2023-02-28T04:02:24;101583.84;;;2.00;63.78
31717;BME280;18301;51.076;17.046;2023-02-28T04:07:29;101579.28;;;2.05;64.04
31717;BME280;18301;51.076;17.046;2023-02-28T04:12:30;101580.94;;;2.13;64.21
31717;BME280;18301;51.076;17.046;2023-02-28T04:17:32;101588.94;;;2.11;64.00
31717;BME280;18301;51.076;17.046;2023-02-28T04:22:33;101588.22;;;2.03;63.98
31717;BME280;18301;51.076;17.046;2023-02-28T04:27:35;101594.44;;;2.03;64.49
31717;BME280;18301;51.076;17.046;2023-02-28T04:32:36;101595.50;;;1.93;64.58
31717;BME280;18301;51.076;17.046;2023-02-28T04:37:38;101593.03;;;1.84;64.49
31717;BME280;18301;51.076;17.046;2023-02-28T04:42:39;101583.94;;;1.96;64.06
31717;BME280;18301;51.076;17.046;2023-02-28T04:47:40;101602.53;;;1.97;64.11
31717;BME280;18301;51.076;17.046;2023-02-28T04:52:42;101599.03;;;1.95;64.23
31717;BME280;18301;51.076;17.046;2023-02-28T04:57:43;101602.50;;;2.00;64.09
31717;BME280;18301;51.076;17.046;2023-02-28T05:02:45;101605.28;;;1.94;63.83
31717;BME280;18301;51.076;17.046;2023-02-28T05:07:46;101599.84;;;2.00;63.25
31717;BME280;18301;51.076;17.046;2023-02-28T05:12:48;101597.94;;;2.05;64.00
31717;BME280;18301;51.076;17.046;2023-02-28T05:17:49;101613.09;;;2.02;63.96
31717;BME280;18301;51.076;17.046;2023-02-28T05:22:51;101610.38;;;2.06;63.89
31717;BME280;18301;51.076;17.046;2023-02-28T05:27:53;101601.56;;;2.01;64.18
31717;BME280;18301;51.076;17.046;2023-02-28T05:32:55;101610.59;;;1.94;64.66
31717;BME280;18301;51.076;17.046;2023-02-28T05:37:56;101618.47;;;2.00;63.90
31717;BME280;18301;51.076;17.046;2023-02-28T05:42:58;101625.53;;;2.00;63.82
31717;BME280;18301;51.076;17.046;2023-02-28T05:48:00;101628.19;;;2.01;62.97
31717;BME280;18301;51.076;17.046;2023-02-28T05:53:01;101629.13;;;2.00;63.08
31717;BME280;18301;51.076;17.046;2023-02-28T05:58:03;101632.59;;;2.04;63.44
31717;BME280;18301;51.076;17.046;2023-02-28T06:03:05;101637.09;;;2.00;63.20
31717;BME280;18301;51.076;17.046;2023-02-28T06:08:06;101650.31;;;2.06;63.00
31717;BME280;18301;51.076;17.046;2023-02-28T06:13:08;101650.31;;;2.05;63.14
31717;BME280;18301;51.076;17.046;2023-02-28T06:18:09;101654.72;;;2.07;63.11
31717;BME280;18301;51.076;17.046;2023-02-28T06:23:11;101655.47;;;2.16;63.28
31717;BME280;18301;51.076;17.046;2023-02-28T06:28:12;101668.78;;;2.16;63.05
31717;BME280;18301;51.076;17.046;2023-02-28T06:33:14;101664.28;;;2.18;62.65
31717;BME280;18301;51.076;17.046;2023-02-28T06:38:15;101671.16;;;2.29;61.70
31717;BME280;18301;51.076;17.046;2023-02-28T06:43:17;101677.13;;;2.42;60.69
31717;BME280;18301;51.076;17.046;2023-02-28T06:48:18;101675.19;;;2.50;59.68
31717;BME280;18301;51.076;17.046;2023-02-28T06:53:20;101673.44;;;2.49;58.84
31717;BME280;18301;51.076;17.046;2023-02-28T06:58:21;101684.22;;;2.43;58.27
31717;BME280;18301;51.076;17.046;2023-02-28T07:03:23;101683.19;;;2.49;57.23
31717;BME280;18301;51.076;17.046;2023-02-28T07:08:25;101682.09;;;2.61;56.97
31717;BME280;18301;51.076;17.046;2023-02-28T07:13:28;101683.91;;;2.59;56.91
31717;BME280;18301;51.076;17.046;2023-02-28T07:18:29;101681.75;;;2.76;56.14
31717;BME280;18301;51.076;17.046;2023-02-28T07:23:31;101692.38;;;2.79;56.05
31717;BME280;18301;51.076;17.046;2023-02-28T07:28:33;101686.75;;;2.93;54.72
31717;BME280;18301;51.076;17.046;2023-02-28T07:33:35;101695.44;;;3.01;55.14
31717;BME280;18301;51.076;17.046;2023-02-28T07:38:37;101687.44;;;3.01;53.89
31717;BME280;18301;51.076;17.046;2023-02-28T07:43:38;101695.22;;;3.12;53.48
31717;BME280;18301;51.076;17.046;2023-02-28T07:48:40;101695.50;;;2.99;52.92
31717;BME280;18301;51.076;17.046;2023-02-28T07:53:42;101701.03;;;3.29;52.77
31717;BME280;18301;51.076;17.046;2023-02-28T07:58:43;101695.78;;;3.26;53.00
31717;BME280;18301;51.076;17.046;2023-02-28T08:03:45;101692.59;;;3.47;51.67
31717;BME280;18301;51.076;17.046;2023-02-28T08:08:47;101702.91;;;3.63;50.72
31717;BME280;18301;51.076;17.046;2023-02-28T08:13:48;101695.31;;;3.83;50.60
31717;BME280;18301;51.076;17.046;2023-02-28T08:18:51;101693.00;;;4.04;49.99
31717;BME280;18301;51.076;17.046;2023-02-28T08:23:53;101701.75;;;4.10;49.94
31717;BME280;18301;51.076;17.046;2023-02-28T08:28:55;101693.47;;;4.20;49.25
31717;BME280;18301;51.076;17.046;2023-02-28T08:33:58;101700.72;;;4.16;49.38
31717;BME280;18301;51.076;17.046;2023-02-28T08:39:00;101694.19;;;4.26;49.60
31717;BME280;18301;51.076;17.046;2023-02-28T08:44:02;101701.97;;;4.35;46.58
31717;BME280;18301;51.076;17.046;2023-02-28T08:49:04;101694.47;;;4.48;49.04
31717;BME280;18301;51.076;17.046;2023-02-28T08:54:05;101692.13;;;4.37;48.49
31717;BME280;18301;51.076;17.046;2023-02-28T08:59:08;101691.34;;;4.65;45.68
31717;BME280;18301;51.076;17.046;2023-02-28T09:04:10;101693.00;;;4.69;46.09
31717;BME280;18301;51.076;17.046;2023-02-28T09:09:16;101698.44;;;4.66;46.62
31717;BME280;18301;51.076;17.046;2023-02-28T09:14:17;101690.72;;;4.87;46.44
31717;BME280;18301;51.076;17.046;2023-02-28T09:19:18;101692.41;;;4.89;45.93
31717;BME280;18301;51.076;17.046;2023-02-28T09:24:20;101690.34;;;4.99;46.56
31717;BME280;18301;51.076;17.046;2023-02-28T09:29:22;101681.63;;;5.22;46.00
31717;BME280;18301;51.076;17.046;2023-02-28T09:34:27;101674.41;;;5.52;44.00
31717;BME280;18301;51.076;17.046;2023-02-28T09:39:28;101668.47;;;5.14;46.09
31717;BME280;18301;51.076;17.046;2023-02-28T09:49:37;101665.75;;;5.16;45.33
31717;BME280;18301;51.076;17.046;2023-02-28T09:54:40;101668.41;;;5.44;45.07
31717;BME280;18301;51.076;17.046;2023-02-28T09:59:57;101666.81;;;5.38;44.08
31717;BME280;18301;51.076;17.046;2023-02-28T10:05:09;101671.72;;;5.52;45.24
31717;BME280;18301;51.076;17.046;2023-02-28T10:11:03;101678.97;;;5.76;44.15
31717;BME280;18301;51.076;17.046;2023-02-28T10:15:44;101685.31;;;5.46;43.58
31717;BME280;18301;51.076;17.046;2023-02-28T10:20:48;101686.22;;;5.45;44.24
31717;BME280;18301;51.076;17.046;2023-02-28T10:26:08;101676.66;;;5.38;43.29
31717;BME280;18301;51.076;17.046;2023-02-28T10:31:16;101676.66;;;5.38;44.31
31717;BME280;18301;51.076;17.046;2023-02-28T10:36:20;101672.25;;;5.63;44.59
31717;BME280;18301;51.076;17.046;2023-02-28T10:41:32;101669.16;;;5.75;45.04
31717;BME280;18301;51.076;17.046;2023-02-28T10:46:40;101664.88;;;5.98;43.88
31717;BME280;18301;51.076;17.046;2023-02-28T10:51:41;101653.31;;;5.96;44.31
31717;BME280;18301;51.076;17.046;2023-02-28T10:56:43;101658.03;;;6.14;44.59
31717;BME280;18301;51.076;17.046;2023-02-28T11:01:46;101648.72;;;6.25;44.16
31717;BME280;18301;51.076;17.046;2023-02-28T11:07:23;101648.59;;;6.04;42.52
31717;BME280;18301;51.076;17.046;2023-02-28T11:12:38;101638.22;;;6.18;43.54
31717;BME280;18301;51.076;17.046;2023-02-28T11:17:56;101639.66;;;6.29;43.60
31717;BME280;18301;51.076;17.046;2023-02-28T11:23:01;101643.47;;;6.21;43.28
31717;BME280;18301;51.076;17.046;2023-02-28T11:28:05;101628.38;;;5.94;42.55
31717;BME280;18301;51.076;17.046;2023-02-28T11:38:21;101632.75;;;6.21;44.02
31717;BME280;18301;51.076;17.046;2023-02-28T11:43:42;101638.34;;;6.15;44.22
31717;BME280;18301;51.076;17.046;2023-02-28T11:49:13;101626.00;;;6.11;43.55
31717;BME280;18301;51.076;17.046;2023-02-28T11:59:41;101612.84;;;6.29;43.94
31717;BME280;18301;51.076;17.046;2023-02-28T12:05:05;101611.97;;;6.03;44.78
31717;BME280;18301;51.076;17.046;2023-02-28T12:10:21;101600.25;;;6.31;44.47
31717;BME280;18301;51.076;17.046;2023-02-28T12:15:29;101597.25;;;6.15;44.41
31717;BME280;18301;51.076;17.046;2023-02-28T12:20:38;101593.38;;;6.23;44.49
31717;BME280;18301;51.076;17.046;2023-02-28T12:30:54;101589.06;;;6.43;44.15
31717;BME280;18301;51.076;17.046;2023-02-28T12:36:00;101585.00;;;6.33;44.07
31717;BME280;18301;51.076;17.046;2023-02-28T12:41:13;101577.34;;;6.45;44.91
31717;BME280;18301;51.076;17.046;2023-02-28T12:46:22;101562.03;;;6.49;43.91
31717;BME280;18301;51.076;17.046;2023-02-28T12:51:26;101562.38;;;6.40;44.56
31717;BME280;18301;51.076;17.046;2023-02-28T12:57:02;101555.81;;;6.25;44.68
31717;BME280;18301;51.076;17.046;2023-02-28T13:08:04;101559.81;;;6.13;44.94
31717;BME280;18301;51.076;17.046;2023-02-28T13:13:15;101552.13;;;6.28;45.51
31717;BME280;18301;51.076;17.046;2023-02-28T13:18:29;101562.25;;;6.19;45.03
31717;BME280;18301;51.076;17.046;2023-02-28T13:38:59;101559.00;;;6.35;45.93
31717;BME280;18301;51.076;17.046;2023-02-28T13:49:25;101552.03;;;6.06;45.71
31717;BME280;18301;51.076;17.046;2023-02-28T14:00:21;101536.16;;;6.01;46.79
31717;BME280;18301;51.076;17.046;2023-02-28T14:05:15;101538.03;;;6.22;46.47
31717;BME280;18301;51.076;17.046;2023-02-28T14:10:41;101525.34;;;6.03;46.63
31717;BME280;18301;51.076;17.046;2023-02-28T14:15:57;101530.34;;;6.13;46.27
31717;BME280;18301;51.076;17.046;2023-02-28T14:21:11;101522.50;;;6.07;46.63
31717;BME280;18301;51.076;17.046;2023-02-28T14:26:44;101522.63;;;6.04;45.72
31717;BME280;18301;51.076;17.046;2023-02-28T14:37:01;101522.13;;;5.93;45.78
31717;BME280;18301;51.076;17.046;2023-02-28T14:42:24;101525.38;;;5.51;46.20
31717;BME280;18301;51.076;17.046;2023-02-28T14:47:29;101518.38;;;5.47;46.97
31717;BME280;18301;51.076;17.046;2023-02-28T14:52:32;101515.38;;;5.56;46.88
31717;BME280;18301;51.076;17.046;2023-02-28T14:57:40;101502.81;;;5.33;46.80
31717;BME280;18301;51.076;17.046;2023-02-28T15:02:42;101517.34;;;5.51;47.80
31717;BME280;18301;51.076;17.046;2023-02-28T15:07:45;101519.44;;;5.68;47.38
31717;BME280;18301;51.076;17.046;2023-02-28T15:12:58;101518.78;;;5.61;46.80
31717;BME280;18301;51.076;17.046;2023-02-28T15:18:02;101519.31;;;5.46;46.84
31717;BME280;18301;51.076;17.046;2023-02-28T15:23:07;101529.03;;;5.23;47.50
31717;BME280;18301;51.076;17.046;2023-02-28T15:28:15;101520.97;;;5.50;46.79
31717;BME280;18301;51.076;17.046;2023-02-28T15:33:19;101519.72;;;5.08;47.99
31717;BME280;18301;51.076;17.046;2023-02-28T15:43:33;101502.00;;;4.76;48.47
31717;BME280;18301;51.076;17.046;2023-02-28T15:48:52;101497.44;;;4.80;48.93
31717;BME280;18301;51.076;17.046;2023-02-28T15:53:58;101512.00;;;4.71;48.75
31717;BME280;18301;51.076;17.046;2023-02-28T15:59:02;101511.94;;;4.73;49.15
31717;BME280;18301;51.076;17.046;2023-02-28T16:04:17;101507.66;;;4.67;49.57
31717;BME280;18301;51.076;17.046;2023-02-28T16:09:19;101514.53;;;4.46;50.00
31717;BME280;18301;51.076;17.046;2023-02-28T16:14:23;101506.50;;;4.48;50.37
31717;BME280;18301;51.076;17.046;2023-02-28T16:19:26;101512.13;;;4.38;50.84
31717;BME280;18301;51.076;17.046;2023-02-28T16:24:27;101526.50;;;4.34;51.49
31717;BME280;18301;51.076;17.046;2023-02-28T16:29:31;101514.59;;;4.15;51.14
31717;BME280;18301;51.076;17.046;2023-02-28T16:34:34;101530.63;;;4.15;51.53
31717;BME280;18301;51.076;17.046;2023-02-28T16:39:35;101532.75;;;4.04;52.32
31717;BME280;18301;51.076;17.046;2023-02-28T16:44:37;101528.38;;;4.00;52.33
31717;BME280;18301;51.076;17.046;2023-02-28T16:49:39;101532.75;;;4.04;52.13
31717;BME280;18301;51.076;17.046;2023-02-28T16:54:43;101543.78;;;3.91;52.92
31717;BME280;18301;51.076;17.046;2023-02-28T16:59:44;101549.94;;;3.61;53.48
31717;BME280;18301;51.076;17.046;2023-02-28T17:04:46;101557.41;;;3.48;54.00
31717;BME280;18301;51.076;17.046;2023-02-28T17:09:47;101553.81;;;3.49;54.21
31717;BME280;18301;51.076;17.046;2023-02-28T17:14:49;101555.72;;;3.44;54.79
31717;BME280;18301;51.076;17.046;2023-02-28T17:19:50;101558.53;;;3.38;54.52
31717;BME280;18301;51.076;17.046;2023-02-28T17:24:52;101565.88;;;3.30;55.06
31717;BME280;18301;51.076;17.046;2023-02-28T17:29:57;101555.53;;;3.16;55.24
31717;BME280;18301;51.076;17.046;2023-02-28T17:34:58;101552.94;;;3.13;54.90
31717;BME280;18301;51.076;17.046;2023-02-28T17:40:00;101557.69;;;3.00;55.71
31717;BME280;18301;51.076;17.046;2023-02-28T17:45:01;101553.44;;;2.91;56.54
31717;BME280;18301;51.076;17.046;2023-02-28T17:50:03;101552.75;;;2.83;56.23
31717;BME280;18301;51.076;17.046;2023-02-28T17:55:05;101550.88;;;2.88;56.28
31717;BME280;18301;51.076;17.046;2023-02-28T18:00:08;101551.00;;;2.82;56.42
31717;BME280;18301;51.076;17.046;2023-02-28T18:05:10;101562.72;;;2.75;57.27
31717;BME280;18301;51.076;17.046;2023-02-28T18:10:16;101564.47;;;2.76;57.08
31717;BME280;18301;51.076;17.046;2023-02-28T18:15:21;101566.34;;;2.71;57.01
31717;BME280;18301;51.076;17.046;2023-02-28T18:20:22;101568.34;;;2.63;57.94
31717;BME280;18301;51.076;17.046;2023-02-28T18:25:24;101571.94;;;2.62;57.20
31717;BME280;18301;51.076;17.046;2023-02-28T18:30:29;101566.78;;;2.52;57.30
31717;BME280;18301;51.076;17.046;2023-02-28T18:35:31;101567.06;;;2.40;57.26
31717;BME280;18301;51.076;17.046;2023-02-28T18:40:36;101568.94;;;2.35;57.41
31717;BME280;18301;51.076;17.046;2023-02-28T18:45:38;101572.47;;;2.37;57.68
31717;BME280;18301;51.076;17.046;2023-02-28T18:50:40;101575.94;;;2.39;57.17
31717;BME280;18301;51.076;17.046;2023-02-28T18:55:45;101575.19;;;2.33;57.83
31717;BME280;18301;51.076;17.046;2023-02-28T19:00:46;101567.25;;;2.31;57.80
31717;BME280;18301;51.076;17.046;2023-02-28T19:05:48;101563.75;;;2.29;58.08
31717;BME280;18301;51.076;17.046;2023-02-28T19:10:51;101576.06;;;2.33;58.09
31717;BME280;18301;51.076;17.046;2023-02-28T19:16:00;101571.66;;;2.32;58.04
31717;BME280;18301;51.076;17.046;2023-02-28T19:21:03;101569.38;;;2.14;59.13
31717;BME280;18301;51.076;17.046;2023-02-28T19:26:18;101573.09;;;2.06;59.39
31717;BME280;18301;51.076;17.046;2023-02-28T19:31:24;101579.53;;;1.95;59.90
31717;BME280;18301;51.076;17.046;2023-02-28T19:36:26;101574.22;;;1.93;59.82
31717;BME280;18301;51.076;17.046;2023-02-28T19:41:28;101580.50;;;1.89;59.95
31717;BME280;18301;51.076;17.046;2023-02-28T19:46:30;101579.75;;;1.81;60.28
31717;BME280;18301;51.076;17.046;2023-02-28T19:51:32;101576.34;;;1.76;60.35
31717;BME280;18301;51.076;17.046;2023-02-28T19:56:34;101579.22;;;1.64;60.70
31717;BME280;18301;51.076;17.046;2023-02-28T20:01:36;101577.38;;;1.67;60.62
31717;BME280;18301;51.076;17.046;2023-02-28T20:06:38;101577.34;;;1.69;60.75
31717;BME280;18301;51.076;17.046;2023-02-28T20:11:40;101575.59;;;1.68;60.72
31717;BME280;18301;51.076;17.046;2023-02-28T20:16:42;101581.06;;;1.58;61.54
31717;BME280;18301;51.076;17.046;2023-02-28T20:21:44;101579.38;;;1.54;61.63
31717;BME280;18301;51.076;17.046;2023-02-28T20:26:45;101579.50;;;1.48;62.04
31717;BME280;18301;51.076;17.046;2023-02-28T20:31:47;101576.84;;;1.47;61.62
31717;BME280;18301;51.076;17.046;2023-02-28T20:36:48;101580.38;;;1.49;61.66
31717;BME280;18301;51.076;17.046;2023-02-28T20:41:50;101581.28;;;1.46;61.83
31717;BME280;18301;51.076;17.046;2023-02-28T20:46:51;101583.19;;;1.38;62.13
31717;BME280;18301;51.076;17.046;2023-02-28T20:51:53;101570.00;;;1.33;62.54
31717;BME280;18301;51.076;17.046;2023-02-28T20:56:54;101575.25;;;1.35;62.75
31717;BME280;18301;51.076;17.046;2023-02-28T21:01:56;101569.06;;;1.34;62.87
31717;BME280;18301;51.076;17.046;2023-02-28T21:06:57;101586.88;;;1.31;63.13
31717;BME280;18301;51.076;17.046;2023-02-28T21:12:00;101581.66;;;1.25;63.29
31717;BME280;18301;51.076;17.046;2023-02-28T21:17:01;101581.75;;;1.19;63.55
31717;BME280;18301;51.076;17.046;2023-02-28T21:22:03;101574.84;;;1.08;63.59
31717;BME280;18301;51.076;17.046;2023-02-28T21:27:04;101565.03;;;1.12;64.22
31717;BME280;18301;51.076;17.046;2023-02-28T21:32:06;101578.25;;;1.15;63.69
31717;BME280;18301;51.076;17.046;2023-02-28T21:37:09;101556.28;;;1.04;63.96
31717;BME280;18301;51.076;17.046;2023-02-28T21:42:11;101560.63;;;1.09;63.90
31717;BME280;18301;51.076;17.046;2023-02-28T21:47:13;101569.50;;;1.08;64.45
31717;BME280;18301;51.076;17.046;2023-02-28T21:52:14;101569.50;;;1.08;64.68
31717;BME280;18301;51.076;17.046;2023-02-28T21:57:16;101571.31;;;1.06;64.73
31717;BME280;18301;51.076;17.046;2023-02-28T22:02:17;101567.78;;;1.04;64.68
31717;BME280;18301;51.076;17.046;2023-02-28T22:07:19;101568.75;;;1.02;64.62
31717;BME280;18301;51.076;17.046;2023-02-28T22:12:20;101566.13;;;0.97;64.60
31717;BME280;18301;51.076;17.046;2023-02-28T22:17:22;101581.22;;;0.95;65.04
31717;BME280;18301;51.076;17.046;2023-02-28T22:22:23;101571.50;;;0.94;65.25
31717;BME280;18301;51.076;17.046;2023-02-28T22:27:26;101584.00;;;0.86;65.85
31717;BME280;18301;51.076;17.046;2023-02-28T22:32:27;101584.00;;;0.86;65.69
31717;BME280;18301;51.076;17.046;2023-02-28T22:37:29;101586.72;;;0.83;65.77
31717;BME280;18301;51.076;17.046;2023-02-28T22:42:32;101596.47;;;0.82;65.87
31717;BME280;18301;51.076;17.046;2023-02-28T22:47:34;101611.50;;;0.85;65.65
31717;BME280;18301;51.076;17.046;2023-02-28T22:52:38;101602.78;;;0.75;65.98
31717;BME280;18301;51.076;17.046;2023-02-28T22:57:40;101608.97;;;0.77;66.01
31717;BME280;18301;51.076;17.046;2023-02-28T23:02:42;101613.41;;;0.74;66.17
31717;BME280;18301;51.076;17.046;2023-02-28T23:07:44;101614.28;;;0.76;65.96
31717;BME280;18301;51.076;17.046;2023-02-28T23:12:46;101601.13;;;0.68;66.34
31717;BME280;18301;51.076;17.046;2023-02-28T23:17:53;101596.63;;;0.72;66.12
31717;BME280;18301;51.076;17.046;2023-02-28T23:22:55;101610.81;;;0.71;66.02
31717;BME280;18301;51.076;17.046;2023-02-28T23:27:56;101591.31;;;0.72;66.05
31717;BME280;18301;51.076;17.046;2023-02-28T23:32:58;101587.00;;;0.63;66.47
31717;BME280;18301;51.076;17.046;2023-02-28T23:37:59;101588.88;;;0.55;66.63
31717;BME280;18301;51.076;17.046;2023-02-28T23:43:01;101601.50;;;0.39;66.94
31717;BME280;18301;51.076;17.046;2023-02-28T23:48:03;101606.84;;;0.36;66.97
31717;BME280;18301;51.076;17.046;2023-02-28T23:53:04;101613.06;;;0.35;67.49
31717;BME280;18301;51.076;17.046;2023-02-28T23:58:06;101607.72;;;0.38;67.58
